createdAt,value
2018-09-28T00:01:15.570Z,24.15
2018-09-28T00:03:43.901Z,21.73
2018-09-28T00:06:12.207Z,22.10
2018-09-28T00:08:40.539Z,22.62
2018-09-28T00:11:08.891Z,24.35
2018-09-28T00:13:37.225Z,23.25
2018-09-28T00:16:05.535Z,31.17
2018-09-28T00:18:33.932Z,28.67
2018-09-28T00:21:02.912Z,18.57
2018-09-28T00:23:31.354Z,21.57
2018-09-28T00:25:59.789Z,30.72
2018-09-28T00:28:28.157Z,22.00
2018-09-28T00:30:56.466Z,26.97
2018-09-28T00:33:24.816Z,21.93
2018-09-28T00:35:53.309Z,22.17
2018-09-28T00:38:21.649Z,27.58
2018-09-28T00:40:50.002Z,24.72
2018-09-28T00:43:19.095Z,20.65
2018-09-28T00:45:47.456Z,21.93
2018-09-28T00:48:16.150Z,27.00
2018-09-28T00:50:44.464Z,23.77
2018-09-28T00:53:12.940Z,22.15
2018-09-28T00:55:41.269Z,21.07
2018-09-28T00:58:09.714Z,22.65
2018-09-28T01:00:38.222Z,18.87
2018-09-28T01:03:06.588Z,23.50
2018-09-28T01:05:35.191Z,24.23
2018-09-28T01:08:03.653Z,29.18
2018-09-28T01:10:32.019Z,24.65
2018-09-28T01:13:00.355Z,26.50
2018-09-28T01:15:28.739Z,22.30
2018-09-28T01:17:57.088Z,23.90
2018-09-28T01:20:25.420Z,22.30
2018-09-28T01:22:53.776Z,25.77
2018-09-28T01:25:22.140Z,28.50
2018-09-28T01:27:50.527Z,21.40
2018-09-28T01:30:18.934Z,26.87
2018-09-28T01:32:47.292Z,29.18
2018-09-28T01:35:15.656Z,29.27
2018-09-28T01:37:44.117Z,24.20
2018-09-28T01:40:12.670Z,24.80
2018-09-28T01:42:42.187Z,36.08
2018-09-28T01:45:10.714Z,28.27
2018-09-28T01:47:39.242Z,28.87
2018-09-28T01:50:07.598Z,22.93
2018-09-28T01:52:35.998Z,28.73
2018-09-28T01:55:05.315Z,28.15
2018-09-28T01:57:33.675Z,26.35
2018-09-28T02:00:02.049Z,28.10
2018-09-28T02:02:30.350Z,27.02
2018-09-28T02:04:58.713Z,24.50
2018-09-28T02:07:27.268Z,28.20
2018-09-28T02:09:55.627Z,30.17
2018-09-28T02:12:24.048Z,27.82
2018-09-28T02:14:52.366Z,27.30
2018-09-28T02:17:20.721Z,30.17
2018-09-28T02:19:49.221Z,27.13
2018-09-28T02:22:17.727Z,29.75
2018-09-28T02:24:46.287Z,26.52
2018-09-28T02:27:14.669Z,23.92
2018-09-28T02:29:43.007Z,25.40
2018-09-28T02:32:11.324Z,27.80
2018-09-28T02:34:39.673Z,30.05
2018-09-28T02:37:08.123Z,30.32
2018-09-28T02:39:36.473Z,27.13
2018-09-28T02:42:05.049Z,30.25
2018-09-28T02:44:34.058Z,26.55
2018-09-28T02:47:02.376Z,26.90
2018-09-28T02:49:30.718Z,28.45
2018-09-28T02:51:59.104Z,27.80
2018-09-28T02:54:27.598Z,28.90
2018-09-28T02:56:57.129Z,30.10
2018-09-28T02:59:25.560Z,30.90
2018-09-28T03:01:53.976Z,28.12
2018-09-28T03:04:22.432Z,31.87
2018-09-28T03:06:50.758Z,31.48
2018-09-28T03:09:19.319Z,30.57
2018-09-28T03:11:47.654Z,28.00
2018-09-28T03:14:15.965Z,30.55
2018-09-28T03:16:44.297Z,27.17
2018-09-28T03:19:12.643Z,29.37
2018-09-28T03:21:40.971Z,29.55
2018-09-28T03:24:09.451Z,29.30
2018-09-28T03:26:37.813Z,26.27
2018-09-28T03:29:06.155Z,31.45
2018-09-28T03:31:34.482Z,27.27
2018-09-28T03:34:02.930Z,23.50
2018-09-28T03:36:33.845Z,27.13
2018-09-28T03:39:02.485Z,31.87
2018-09-28T03:41:30.916Z,48.23
2018-09-28T03:43:59.415Z,32.20
2018-09-28T03:46:27.829Z,34.10
2018-09-28T03:48:56.177Z,31.40
2018-09-28T03:51:24.951Z,35.38
2018-09-28T03:53:53.261Z,28.55
2018-09-28T03:56:21.674Z,28.12
2018-09-28T03:58:49.992Z,31.68
2018-09-28T04:01:18.345Z,30.15
2018-09-28T04:03:46.714Z,32.00
2018-09-28T04:06:15.177Z,27.70
2018-09-28T04:08:43.554Z,34.67
2018-09-28T04:11:11.881Z,30.92
2018-09-28T04:13:40.230Z,32.58
2018-09-28T04:16:08.619Z,31.05
2018-09-28T04:18:37.024Z,34.90
2018-09-28T04:21:05.463Z,34.30
2018-09-28T04:23:33.895Z,37.93
2018-09-28T04:26:02.279Z,31.93
2018-09-28T04:28:30.582Z,35.55
2018-09-28T04:30:58.899Z,29.02
2018-09-28T04:33:27.248Z,32.08
2018-09-28T04:35:55.593Z,36.80
2018-09-28T04:38:23.968Z,33.28
2018-09-28T04:40:52.292Z,39.13
2018-09-28T04:43:20.597Z,40.48
2018-09-28T04:45:49.107Z,37.20
2018-09-28T04:48:17.498Z,42.55
2018-09-28T04:50:45.918Z,38.15
2018-09-28T04:53:14.344Z,38.70
2018-09-28T04:55:42.757Z,39.45
2018-09-28T04:58:12.630Z,33.73
2018-09-28T05:00:41.129Z,45.10
2018-09-28T05:03:09.560Z,35.85
2018-09-28T05:05:42.222Z,35.58
2018-09-28T05:08:10.822Z,39.83
2018-09-28T05:10:39.223Z,35.33
2018-09-28T05:13:07.634Z,31.37
2018-09-28T05:15:36.071Z,34.65
2018-09-28T05:18:04.467Z,37.60
2018-09-28T05:20:33.014Z,44.20
2018-09-28T05:23:01.361Z,40.08
2018-09-28T05:25:29.733Z,34.63
2018-09-28T05:27:58.058Z,52.27
2018-09-28T05:30:26.389Z,37.13
2018-09-28T05:32:54.867Z,37.35
2018-09-28T05:35:23.109Z,43.08
2018-09-28T05:37:51.735Z,36.08
2018-09-28T05:40:20.159Z,37.80
2018-09-28T05:42:48.923Z,34.27
2018-09-28T05:45:17.383Z,39.08
2018-09-28T05:47:45.739Z,35.13
2018-09-28T05:50:14.155Z,41.00
2018-09-28T05:52:42.468Z,32.15
2018-09-28T05:55:10.852Z,33.63
2018-09-28T05:57:39.188Z,37.85
2018-09-28T06:00:13.049Z,32.42
2018-09-28T06:02:46.847Z,30.70
2018-09-28T06:05:20.637Z,27.98
2018-09-28T06:07:49.097Z,33.78
2018-09-28T06:10:17.884Z,38.00
2018-09-28T06:12:46.238Z,30.60
2018-09-28T06:15:14.606Z,26.45
2018-09-28T06:17:44.017Z,19.35
2018-09-28T06:20:12.452Z,19.82
2018-09-28T06:22:40.768Z,20.68
2018-09-28T06:25:09.173Z,21.25
2018-09-28T06:27:37.483Z,22.48
2018-09-28T06:30:05.850Z,21.07
2018-09-28T06:32:34.743Z,27.00
2018-09-28T06:35:03.206Z,15.35
2018-09-28T06:37:31.595Z,24.23
2018-09-28T06:40:00.048Z,22.42
2018-09-28T06:42:28.630Z,19.77
2018-09-28T06:44:57.041Z,18.42
2018-09-28T06:47:25.395Z,21.35
2018-09-28T06:49:53.782Z,17.20
2018-09-28T06:52:22.101Z,21.48
2018-09-28T06:54:50.428Z,12.98
2018-09-28T06:57:19.815Z,12.65
2018-09-28T06:59:48.224Z,19.07
2018-09-28T07:02:16.712Z,13.03
2018-09-28T07:04:45.260Z,18.57
2018-09-28T07:07:13.672Z,21.25
2018-09-28T07:09:42.061Z,21.27
2018-09-28T07:12:10.391Z,18.12
2018-09-28T07:14:38.722Z,10.23
2018-09-28T07:17:07.172Z,17.00
2018-09-28T07:19:42.421Z,12.00
2018-09-28T07:22:10.745Z,15.28
2018-09-28T07:24:39.197Z,11.57
2018-09-28T07:27:07.655Z,12.95
2018-09-28T07:29:36.016Z,15.10
2018-09-28T07:32:04.381Z,23.87
2018-09-28T07:34:32.688Z,8.70
2018-09-28T07:37:01.173Z,13.80
2018-09-28T07:39:29.375Z,17.40
2018-09-28T07:41:57.721Z,21.42
2018-09-28T07:44:25.998Z,12.43
2018-09-28T07:46:54.413Z,12.70
2018-09-28T07:49:22.708Z,22.45
2018-09-28T07:51:51.062Z,13.50
2018-09-28T07:54:19.368Z,17.67
2018-09-28T07:56:47.748Z,15.20
2018-09-28T07:59:16.119Z,11.08
2018-09-28T08:01:44.566Z,16.07
2018-09-28T08:04:13.013Z,13.65
2018-09-28T08:06:41.634Z,15.88
2018-09-28T08:09:10.781Z,9.28
2018-09-28T08:11:39.213Z,15.28
2018-09-28T08:14:08.262Z,18.82
2018-09-28T08:16:36.658Z,16.25
2018-09-28T08:19:05.000Z,12.95
2018-09-28T08:21:33.319Z,16.17
2018-09-28T08:24:01.683Z,17.60
2018-09-28T08:26:29.978Z,15.03
2018-09-28T08:28:58.313Z,12.45
2018-09-28T08:31:27.398Z,13.20
2018-09-28T08:33:55.675Z,10.53
2018-09-28T08:36:24.060Z,13.68
2018-09-28T08:38:52.348Z,17.30
2018-09-28T08:41:20.896Z,15.08
2018-09-28T08:43:49.282Z,11.43
2018-09-28T08:46:17.856Z,19.10
2018-09-28T08:48:46.377Z,16.40
2018-09-28T08:51:14.667Z,19.75
2018-09-28T08:53:43.002Z,17.02
2018-09-28T08:56:11.395Z,16.37
2018-09-28T08:58:39.762Z,12.10
2018-09-28T09:01:08.157Z,13.00
2018-09-28T09:03:36.512Z,15.78
2018-09-28T09:06:04.852Z,19.60
2018-09-28T09:08:33.225Z,25.37
2018-09-28T09:11:01.539Z,12.80
2018-09-28T09:13:29.912Z,14.45
2018-09-28T09:15:58.275Z,10.18
2018-09-28T09:18:26.798Z,13.70
2018-09-28T09:20:55.252Z,11.05
2018-09-28T09:23:23.653Z,11.20
2018-09-28T09:25:52.122Z,16.02
2018-09-28T09:28:20.459Z,19.82
2018-09-28T09:30:48.838Z,16.57
2018-09-28T09:33:19.119Z,18.75
2018-09-28T09:35:48.308Z,12.18
2018-09-28T09:38:16.678Z,24.20
2018-09-28T09:40:44.992Z,12.50
2018-09-28T09:43:13.271Z,18.25
2018-09-28T09:45:42.781Z,16.97
2018-09-28T09:48:11.144Z,19.15
2018-09-28T09:50:39.528Z,23.92
2018-09-28T09:53:07.813Z,17.75
2018-09-28T09:55:36.183Z,18.90
2018-09-28T09:58:04.625Z,17.92
2018-09-28T10:00:38.426Z,20.72
2018-09-28T10:03:12.132Z,12.65
2018-09-28T10:05:40.464Z,16.00
2018-09-28T10:08:08.789Z,20.90
2018-09-28T10:10:37.169Z,12.18
2018-09-28T10:13:05.553Z,12.75
2018-09-28T10:15:33.980Z,14.80
2018-09-28T10:18:02.461Z,15.35
2018-09-28T10:20:30.968Z,18.10
2018-09-28T10:22:59.416Z,13.40
2018-09-28T10:25:27.824Z,17.37
2018-09-28T10:27:56.765Z,12.82
2018-09-28T10:30:25.095Z,15.70
2018-09-28T10:32:53.432Z,9.53
2018-09-28T10:35:21.847Z,12.13
2018-09-28T10:37:50.217Z,10.90
2018-09-28T10:40:18.671Z,12.75
2018-09-28T10:42:47.450Z,12.68
2018-09-28T10:45:15.973Z,9.63
2018-09-28T10:47:44.314Z,11.00
2018-09-28T10:50:12.768Z,14.25
2018-09-28T10:52:41.440Z,8.58
2018-09-28T10:55:09.927Z,11.53
2018-09-28T10:57:38.321Z,11.88
2018-09-28T11:00:06.731Z,10.38
2018-09-28T11:02:35.118Z,10.98
2018-09-28T11:05:04.113Z,10.30
2018-09-28T11:07:32.892Z,13.50
2018-09-28T11:10:01.303Z,11.88
2018-09-28T11:12:29.657Z,9.28
2018-09-28T11:14:58.021Z,12.60
2018-09-28T11:17:26.372Z,15.13
2018-09-28T11:19:54.708Z,9.70
2018-09-28T11:22:23.017Z,10.45
2018-09-28T11:24:51.376Z,13.43
2018-09-28T11:27:19.924Z,19.52
2018-09-28T11:29:48.283Z,11.22
2018-09-28T11:32:16.767Z,12.70
2018-09-28T11:34:45.255Z,18.20
2018-09-28T11:37:14.756Z,15.48
2018-09-28T11:39:43.342Z,19.92
2018-09-28T11:42:11.645Z,13.68
2018-09-28T11:44:40.008Z,13.45
2018-09-28T11:47:08.327Z,19.60
2018-09-28T11:49:36.681Z,14.38
2018-09-28T11:52:05.022Z,16.35
2018-09-28T11:54:33.354Z,8.70
2018-09-28T11:57:01.760Z,12.98
2018-09-28T11:59:30.075Z,12.35
2018-09-28T12:01:58.455Z,11.43
2018-09-28T12:04:26.846Z,12.58
2018-09-28T12:06:55.359Z,11.12
2018-09-28T12:09:23.766Z,12.88
2018-09-28T12:11:52.182Z,6.50
2018-09-28T12:14:20.651Z,10.40
2018-09-28T12:16:49.229Z,12.37
2018-09-28T12:19:17.531Z,11.50
2018-09-28T12:21:45.879Z,7.30
2018-09-28T12:24:14.258Z,9.85
2018-09-28T12:26:42.569Z,9.80
2018-09-28T12:29:10.979Z,6.95
2018-09-28T12:31:40.178Z,17.05
2018-09-28T12:34:08.482Z,8.00
2018-09-28T12:36:36.896Z,12.80
2018-09-28T12:39:07.476Z,16.82
2018-09-28T12:41:35.764Z,9.03
2018-09-28T12:44:04.094Z,15.53
2018-09-28T12:46:32.502Z,15.40
2018-09-28T12:49:01.100Z,11.80
2018-09-28T12:51:32.640Z,11.73
2018-09-28T12:54:01.298Z,12.60
2018-09-28T12:56:29.906Z,8.15
2018-09-28T12:58:58.369Z,11.57
2018-09-28T13:01:26.793Z,13.18
2018-09-28T13:03:55.498Z,18.52
2018-09-28T13:06:23.855Z,12.78
2018-09-28T13:08:52.204Z,14.53
2018-09-28T13:11:20.597Z,8.45
2018-09-28T13:13:48.974Z,7.58
2018-09-28T13:16:17.317Z,10.32
2018-09-28T13:18:45.721Z,13.70
2018-09-28T13:21:14.152Z,11.03
2018-09-28T13:23:42.479Z,10.80
2018-09-28T13:26:10.901Z,13.15
2018-09-28T13:28:39.320Z,11.40
2018-09-28T13:31:08.077Z,11.88
2018-09-28T13:33:36.607Z,9.53
2018-09-28T13:36:05.249Z,8.63
2018-09-28T13:38:33.723Z,9.93
2018-09-28T13:41:01.960Z,9.55
2018-09-28T13:43:30.341Z,10.38
2018-09-28T13:45:58.719Z,14.70
2018-09-28T13:48:27.215Z,9.88
2018-09-28T13:50:55.517Z,13.10
2018-09-28T13:53:23.877Z,9.23
2018-09-28T13:55:52.168Z,10.05
2018-09-28T13:58:20.552Z,10.78
2018-09-28T14:00:48.885Z,9.15
2018-09-28T14:03:17.324Z,9.88
2018-09-28T14:05:45.810Z,7.75
2018-09-28T14:08:14.147Z,10.65
2018-09-28T14:10:43.339Z,7.37
2018-09-28T14:13:11.701Z,6.67
2018-09-28T14:15:40.115Z,6.50
2018-09-28T14:18:09.490Z,6.65
2018-09-28T14:20:37.811Z,8.43
2018-09-28T14:23:06.180Z,8.15
2018-09-28T14:25:34.545Z,5.85
2018-09-28T14:28:03.556Z,7.35
2018-09-28T14:30:31.961Z,6.83
2018-09-28T14:33:00.290Z,2.92
2018-09-28T14:35:28.786Z,5.28
2018-09-28T14:37:57.172Z,3.62
2018-09-28T14:40:25.572Z,2.60
2018-09-28T14:42:53.818Z,8.43
2018-09-28T14:45:23.205Z,8.43
2018-09-28T14:47:51.687Z,8.93
2018-09-28T14:50:20.240Z,5.12
2018-09-28T14:52:48.737Z,4.92
2018-09-28T14:55:17.415Z,7.45
2018-09-28T14:57:45.791Z,7.58
2018-09-28T15:00:14.173Z,6.85
2018-09-28T15:02:42.551Z,4.87
2018-09-28T15:05:10.864Z,9.53
2018-09-28T15:07:39.211Z,6.92
2018-09-28T15:10:07.664Z,8.23
2018-09-28T15:12:35.989Z,7.47
2018-09-28T15:15:04.407Z,9.10
2018-09-28T15:17:32.872Z,9.03
2018-09-28T15:20:03.099Z,10.15
2018-09-28T15:22:31.564Z,7.37
2018-09-28T15:24:59.877Z,7.37
2018-09-28T15:27:28.292Z,6.83
2018-09-28T15:29:56.689Z,5.55
2018-09-28T15:32:25.136Z,6.28
2018-09-28T15:34:53.597Z,6.55
2018-09-28T15:37:22.048Z,10.68
2018-09-28T15:39:50.463Z,5.72
2018-09-28T15:42:18.955Z,7.20
2018-09-28T15:44:47.544Z,5.78
2018-09-28T15:47:16.080Z,5.85
2018-09-28T15:49:44.515Z,5.83
2018-09-28T15:52:12.841Z,6.05
2018-09-28T15:54:41.163Z,6.72
2018-09-28T15:57:09.540Z,6.65
2018-09-28T15:59:37.858Z,9.70
2018-09-28T16:02:06.519Z,11.95
2018-09-28T16:04:34.880Z,7.15
2018-09-28T16:07:03.260Z,7.55
2018-09-28T16:09:31.768Z,11.18
2018-09-28T16:12:00.205Z,11.18
2018-09-28T16:14:28.965Z,8.18
2018-09-28T16:16:57.369Z,10.70
2018-09-28T16:19:25.828Z,6.50
2018-09-28T16:21:54.230Z,6.10
2018-09-28T16:24:22.581Z,7.03
2018-09-28T16:26:51.813Z,8.98
2018-09-28T16:29:20.132Z,10.13
2018-09-28T16:31:48.505Z,6.53
2018-09-28T16:34:16.827Z,7.83
2018-09-28T16:36:45.171Z,12.93
2018-09-28T16:39:13.485Z,10.82
2018-09-28T16:41:42.196Z,7.45
2018-09-28T16:44:10.557Z,9.40
2018-09-28T16:46:38.939Z,9.23
2018-09-28T16:49:07.424Z,9.18
2018-09-28T16:51:36.007Z,4.70
2018-09-28T16:54:04.464Z,9.30
2018-09-28T16:56:32.858Z,12.68
2018-09-28T16:59:01.386Z,10.00
2018-09-28T17:01:29.723Z,7.05
2018-09-28T17:03:58.069Z,6.95
2018-09-28T17:06:26.393Z,4.20
2018-09-28T17:08:54.739Z,8.83
2018-09-28T17:11:23.051Z,8.90
2018-09-28T17:13:51.369Z,11.28
2018-09-28T17:16:20.873Z,9.90
2018-09-28T17:18:49.284Z,10.43
2018-09-28T17:21:17.928Z,11.50
2018-09-28T17:23:47.036Z,7.22
2018-09-28T17:26:15.532Z,12.70
2018-09-28T17:28:44.085Z,10.60
2018-09-28T17:31:13.347Z,10.28
2018-09-28T17:33:41.951Z,10.65
2018-09-28T17:36:10.371Z,10.40
2018-09-28T17:38:38.777Z,22.87
2018-09-28T17:41:07.129Z,5.85
2018-09-28T17:43:35.556Z,10.88
2018-09-28T17:46:03.905Z,12.95
2018-09-28T17:48:32.179Z,8.65
2018-09-28T17:51:00.546Z,11.70
2018-09-28T17:53:28.834Z,9.28
2018-09-28T17:55:57.179Z,7.47
2018-09-28T17:58:25.559Z,7.50
2018-09-28T18:00:54.129Z,12.90
2018-09-28T18:03:22.337Z,11.15
2018-09-28T18:05:50.880Z,9.83
2018-09-28T18:08:19.218Z,12.05
2018-09-28T18:10:47.720Z,7.90
2018-09-28T18:13:16.279Z,11.05
2018-09-28T18:15:44.640Z,13.78
2018-09-28T18:18:12.949Z,9.43
2018-09-28T18:20:41.352Z,10.20
2018-09-28T18:23:10.238Z,9.38
2018-09-28T18:25:38.903Z,7.40
2018-09-28T18:28:07.396Z,10.43
2018-09-28T18:30:35.770Z,11.63
2018-09-28T18:33:04.214Z,8.30
2018-09-28T18:35:32.558Z,7.30
2018-09-28T18:38:01.008Z,9.75
2018-09-28T18:40:29.292Z,10.93
2018-09-28T18:42:57.664Z,16.48
2018-09-28T18:45:26.032Z,11.20
2018-09-28T18:47:54.553Z,9.63
2018-09-28T18:50:23.644Z,6.78
2018-09-28T18:52:52.076Z,14.73
2018-09-28T18:55:21.816Z,12.47
2018-09-28T18:57:50.095Z,7.42
2018-09-28T19:00:19.329Z,13.30
2018-09-28T19:02:47.683Z,9.93
2018-09-28T19:05:16.007Z,8.73
2018-09-28T19:07:44.484Z,15.55
2018-09-28T19:10:12.849Z,12.68
2018-09-28T19:12:41.227Z,15.13
2018-09-28T19:15:09.515Z,9.58
2018-09-28T19:17:37.832Z,11.35
2018-09-28T19:20:06.316Z,10.68
2018-09-28T19:22:34.562Z,19.95
2018-09-28T19:25:03.168Z,7.83
2018-09-28T19:27:32.139Z,11.63
2018-09-28T19:30:00.926Z,8.20
2018-09-28T19:32:29.513Z,10.23
2018-09-28T19:34:57.892Z,7.37
2018-09-28T19:37:27.884Z,14.10
2018-09-28T19:39:56.271Z,11.75
2018-09-28T19:42:24.611Z,12.58
2018-09-28T19:44:53.029Z,10.23
2018-09-28T19:47:21.615Z,5.75
2018-09-28T19:49:49.963Z,14.98
2018-09-28T19:52:19.136Z,12.03
2018-09-28T19:54:47.891Z,10.63
2018-09-28T19:57:16.327Z,13.83
2018-09-28T19:59:44.737Z,6.80
2018-09-28T20:02:13.183Z,11.08
2018-09-28T20:04:41.634Z,7.83
2018-09-28T20:07:10.226Z,14.60
2018-09-28T20:09:38.807Z,14.38
2018-09-28T20:12:08.491Z,9.05
2018-09-28T20:14:37.077Z,11.25
2018-09-28T20:17:07.460Z,17.07
2018-09-28T20:19:35.843Z,20.35
2018-09-28T20:22:04.325Z,11.45
2018-09-28T20:24:32.984Z,8.58
2018-09-28T20:27:01.639Z,9.68
2018-09-28T20:29:29.950Z,6.90
2018-09-28T20:31:58.439Z,14.60
2018-09-28T20:34:26.843Z,6.55
2018-09-28T20:36:55.186Z,9.58
2018-09-28T20:39:23.481Z,14.35
2018-09-28T20:41:51.844Z,8.33
2018-09-28T20:44:20.290Z,11.75
2018-09-28T20:46:48.762Z,16.82
2018-09-28T20:49:23.782Z,10.20
2018-09-28T20:52:31.886Z,4.70
2018-09-28T20:55:00.216Z,13.13
2018-09-28T20:57:28.559Z,6.08
2018-09-28T20:59:56.905Z,7.00
2018-09-28T21:02:25.182Z,16.60
2018-09-28T21:04:53.512Z,10.55
2018-09-28T21:07:21.979Z,13.43
2018-09-28T21:09:50.827Z,8.15
2018-09-28T21:12:19.338Z,14.15
2018-09-28T21:14:48.149Z,11.28
2018-09-28T21:17:16.947Z,6.55
2018-09-28T21:19:45.947Z,12.10
2018-09-28T21:22:14.255Z,9.78
2018-09-28T21:24:42.713Z,13.78
2018-09-28T21:27:10.964Z,16.65
2018-09-28T21:29:40.268Z,10.43
2018-09-28T21:32:08.535Z,8.68
2018-09-28T21:34:36.815Z,10.80
2018-09-28T21:37:05.092Z,13.28
2018-09-28T21:39:33.432Z,13.43
2018-09-28T21:42:02.619Z,10.53
2018-09-28T21:44:30.954Z,12.35
2018-09-28T21:46:59.268Z,13.30
2018-09-28T21:49:27.750Z,20.50
2018-09-28T21:51:56.286Z,9.90
2018-09-28T21:54:24.651Z,20.62
2018-09-28T21:56:53.073Z,14.28
2018-09-28T21:59:21.474Z,13.25
2018-09-28T22:01:49.699Z,15.00
2018-09-28T22:04:19.498Z,8.90
2018-09-28T22:06:47.791Z,8.53
2018-09-28T22:09:16.232Z,8.78
2018-09-28T22:11:44.670Z,10.20
2018-09-28T22:14:13.820Z,14.98
2018-09-28T22:16:42.207Z,8.50
2018-09-28T22:19:10.528Z,14.18
2018-09-28T22:21:40.028Z,6.97
2018-09-28T22:24:08.383Z,17.27
2018-09-28T22:26:36.800Z,17.00
2018-09-28T22:29:05.063Z,12.00
2018-09-28T22:31:33.471Z,12.35
2018-09-28T22:34:02.403Z,9.43
2018-09-28T22:36:30.815Z,9.65
2018-09-28T22:38:59.970Z,12.23
2018-09-28T22:41:28.298Z,11.38
2018-09-28T22:43:56.638Z,9.98
2018-09-28T22:46:27.853Z,9.03
2018-09-28T22:48:56.192Z,8.45
2018-09-28T22:51:24.581Z,13.38
2018-09-28T22:53:52.951Z,9.48
2018-09-28T22:56:21.291Z,11.15
2018-09-28T22:58:49.605Z,21.00
2018-09-28T23:01:17.935Z,13.95
2018-09-28T23:03:46.263Z,9.38
2018-09-28T23:06:14.592Z,17.23
2018-09-28T23:08:42.903Z,14.75
2018-09-28T23:11:11.308Z,12.28
2018-09-28T23:13:39.623Z,10.85
2018-09-28T23:16:08.104Z,16.80
2018-09-28T23:18:36.504Z,10.15
2018-09-28T23:21:04.801Z,9.38
2018-09-28T23:23:33.168Z,13.48
2018-09-28T23:26:01.483Z,17.57
2018-09-28T23:28:29.855Z,12.28
2018-09-28T23:30:58.115Z,11.50
2018-09-28T23:33:26.393Z,10.20
2018-09-28T23:35:55.510Z,12.60
2018-09-28T23:38:23.791Z,12.88
2018-09-28T23:40:52.144Z,9.85
2018-09-28T23:43:21.209Z,17.92
2018-09-28T23:45:49.592Z,14.45
2018-09-28T23:48:18.013Z,7.80
2018-09-28T23:50:46.675Z,11.30
2018-09-28T23:53:15.201Z,8.98
2018-09-28T23:55:43.911Z,19.60
2018-09-28T23:58:13.473Z,10.15
